Filters

Adaptor Import to India

Connect2India provides real time data for Adaptor import, historical Adaptor import analysis, current demand in overseas countries and import price of Adaptor.

Adaptor

Adaptor import data

Date HS Code Product Description Origin Port Destination Port Quantity Value (INR in Million) Unit Per Unit (INR)
2016-09-27 84509010 SPARE PARTS FOR WASHING MACHINE- PLASTIC FITTING SET FOR INLET HOSE OF WASHING MACHINE (30000 SETS TAP ADAPTOR) CHINA Nhava Sheva Sea 2273 0.8983 KGS 395.0
2016-09-27 84439990 COATING ADAPTOR 134-135 800100019 PARTS FOR ROTARY SCREEN PRINTING MACHINE NETHERLANDS Ahmedabad 2 0.0117 UNT 5848.0
2016-09-27 84679900 HKW-030-55/11 NOSE ADAPTOR 3-6 HK55/11 (QTY: 1 PCS / CHF 156.00 PER PCS) SWITZERLAND Bombay Air Cargo 0 0.0112 KGS 0.0
2016-09-27 84679900 HKW-070-55 NOSE ADAPTOR 7 HK55 (QTY: 1 PCS / CHF 99.00 PER PCS) SWITZERLAND Bombay Air Cargo 0 0.0071 KGS 0.0
2016-09-27 84689000 WK-702019065 TIP ADAPTOR TWIN (PART OF ROBOTIC WELDING MACHINE) AUSTRIA Chennai Air Cargo 25 0.0334 NOS 1334.0
2016-09-27 84719000 COMPUTER ACCESSORIES: WB-9063A SC SM SIMPLEX ADAPTOR-500 NOS CHINA Chennai Sea 500 0.0022 PCS 4.0
2016-09-27 84719000 COMPUTER ACCESSORIES: WB-9063B SC SM DUPLEX ADAPTOR-500 NOS CHINA Chennai Sea 500 0.0041 PCS 8.0
2016-09-27 39172990 CPVC FITTINGS IN ASTM D 2846 FINOLEX BRAND,IVORY - BRASS THREADED FEMALE ADAPTOR TYPE 1 3/4" (QTY : 150 PCS) CHINA Pune-Talegoan ICD 13 0.0072 KGS 552.0
2016-09-27 39172990 CPVC FITTINGS IN ASTM D 2846 FINOLEX BRAND,IVORY - FEMALE ADAPTOR 1"(QTY : 15360 PCS) CHINA Pune-Talegoan ICD 645 0.1997 KGS 309.0
2016-09-27 39172990 CPVC FITTINGS IN ASTM D 2846 FINOLEX BRAND,IVORY - MALE ADAPTOR 1-1/4" (QTY : 3360 PCS) CHINA Pune-Talegoan ICD 129 0.0391 KGS 303.0
2016-09-27 39172990 CPVC FITTINGS IN ASTM D 2846 FINOLEX BRAND,IVORY - MALE ADAPTOR 1" (QTY : 23400 PCS) CHINA Pune-Talegoan ICD 550 0.1762 KGS 320.0
2016-09-27 39269099 ADAPTOR 12 WAY BACKSHELL 69195288 (CLAMP) (FOR MANUFACTURINGOF WIRING HARNESS) UNITED ARAB EMIRATES Delhi Air Cargo 25 0.0022 NOS 88.0
2016-09-27 39269099 ADAPTOR HOLDER & LOCK SC,MT-603-3-1+2 (MADE UP OF PLASTIC) CHINA Banglore Air Cargo 400 0.0068 PCS 17.0
2016-09-27 39269099 ADAPTOR PLATE MINITERMINAL MIT-605-2-2(MADE UP OF PLASTIC) CHINA Banglore Air Cargo 50 0.0099 PCS 197.0
2016-09-27 85176290 1734-ADN B(POINT I/O DEVICENET NETWORK ADAPTOR(1734-ADN)PARTS OF P.L. CONTROLLER FOR RETAIL SALE) CHINA Delhi Air Cargo 3 0.0137 NOS 4550.0
2016-09-27 85176290 375-3356-02 - PCA,DUAL,4GB,FC,PCI-E HBA ( PCI HOST ADAPTOR )(COO: CHINA )(FOR INTERNAL USE ONLY) CHINA Banglore Air Cargo 1 0.0514 NOS 51412.0
2016-09-27 85176290 PN-138004(POINT I/O DUAL PORT NETWORK ADAPTOR(1734-AENTR)PARTS OF P.L. CONTROLLER FOR RETAIL SALE) CHINA Delhi Air Cargo 65 0.4856 NOS 7470.0
2016-09-27 85176290 PN-183360(POINT I/O ETHERNET NETWORK ADAPTOR(1734-AENT)PARTS OF P.L. CONTROLLER FOR CAPTIVE CONSUMPTION) UNITED STATES Delhi Air Cargo 1 0.0056 NOS 5638.0
2016-09-27 85176290 PN-C154758(POINT I/O DUAL PORT NETWORK ADAPTOR(1734-AENTR)PARTS OF P.L. CONTROLLER FOR CAPTIVE CONSUMPTION) UNITED STATES Delhi Air Cargo 1 0.0075 NOS 7471.0
2016-09-27 85176290 PN-C76365(FLEX ETHERNET/IP ADAPTOR(1794-AENT)PARTS OF P.L. CONTROLLER FOR CAPTIVE CONSUMPTION) UNITED STATES Delhi Air Cargo 1 0.0063 NOS 6253.0
2016-09-27 85176990 PNWAAG3611SX AC ADAPTOR (SERVICE PARTS FOR TELEPHONE) VIETNAM, DEMOCRATIC REP. OF Delhi Air Cargo 250 0.0768 PCS 307.0
2016-09-27 85176990 SH100000355 PCI EXPRESS X8 GEN 3 DUAL (ADAPTOR CARD) UNITED STATES Banglore Air Cargo 1 0.0681 NOS 68085.0
2016-09-27 85159000 ADAPTOR ASSY ADAPTOR (B170-00-3846)INNER RING(IRX70X80X30)COOLING PIPE(B170-00-3775) (PARTS FOR SEAM WELDING MACHINE) JAPAN Banglore Air Cargo 2 0.4404 PCS 220198.0
2016-09-27 85183000 BONE CONDUCTIVE HEADPHONE : RP-HGS10-G (INCLUDE AC ADAPTOR,CABLE) [SAMPLE FOR DEMO PURPOSE ONLY, NOT FOR SALE] JAPAN Delhi Air Cargo 2 0.2895 PCS 144760.0
2016-09-27 85177090 00MY794 MECH LENOVO B300 SLIDE RACK MOUNT KIT (LAN ADAPTOR CARD) MALAYSIA Delhi Air Cargo 2 0.024 PCS 11979.0
2016-09-27 73079910 GHB04 Adaptor AGR1/4" Components for Hydraulic (INDUSTRIAL USE) (100 PC) (COUNTRY OF ORIGIN : IT) GERMANY Kolkata Air Cargo 6 0.0035 KGS 584.0
2016-09-27 73079910 GHB08 Adaptor AGR1/2" Components for Hydraulic (INDUSTRIAL USE) (100 PC) (COUNTRY OF ORIGIN : IT) GERMANY Kolkata Air Cargo 11 0.0067 KGS 605.0
2016-09-27 84199090 ADAPTOR(3323271000)(4050982181873)P/O COFFEE M/C GERMANY Bangalore ICD 40 0.0063 PCS 157.0
2016-09-27 84139190 ADAPTORS (PART OF FIE PUMP) (9 PCS) UNITED KINGDOM Chennai Air Cargo 8 0.0217 KGS 2710.0
2016-09-27 84314390 OILWELL SUPPLIES: STATOR, N.ROTORS PUMP MN-80-1-POS 31 C/W ADAPTOR FOR TEMP UNITED STATES Nhava Sheva Sea 1 0.076 UNT 75954.0
2016-09-27 84314990 10077549 M20-INNER G1 4ED ADAPTOR (168 PCS) (COMPONENTS OF SANY EXCAVATOR) CHINA Pune-Talegoan ICD 10 0.0073 KGS 728.0
2016-09-27 84314990 11419366 SHTDWN ADAPTOR SY215C8M2K.1.3.6-4 (100 PCS) (COMPONENTS OF SANY EXCAVATOR) CHINA Pune-Talegoan ICD 3 0.0069 KGS 2292.0
2016-09-27 84139120 19-000250 STILLING TUBE ADAPTOR FOR 4" CENTRIFUGAL PUMP STILLING TUBE ADAPTOR FOR 4" CENTRIFUGAL PUMP (ACCESSORIES OF SO CHINA Delhi Air Cargo 30 0.0364 SET 1212.0
2016-09-27 84139120 19-000255 STILLING TUBE ADAPTOR FOR 6" CENTRIFUGAL PUMP STILLING TUBE ADAPTOR FOR 6" CENTRIFUGAL PUMP (ACCESSORIES OF SO CHINA Delhi Air Cargo 70 0.1498 SET 2140.0
2016-09-27 73269099 ST ADAPTOR (PNEUMATIC FITTINGS) C02250618 BR-NORGREN KOREA,REPUBLIC OF Delhi Air Cargo 500 0.0101 NOS 20.0
2016-09-27 73269099 ST ADAPTOR (PNEUMATIC FITTINGS) C02250628 BR-NORGREN KOREA,REPUBLIC OF Delhi Air Cargo 400 0.008 NOS 19.0
2016-09-27 73269099 ST ADAPTOR (PNEUMATIC FITTINGS) C02251028 BR-NORGREN KOREA,REPUBLIC OF Delhi Air Cargo 300 0.0081 NOS 26.0
2016-09-27 73269099 ST ADAPTOR (PNEUMATIC FITTINGS) C02251038 BR-NORGREN KOREA,REPUBLIC OF Delhi Air Cargo 100 0.0028 NOS 28.0
2016-09-27 73269099 ST ADAPTOR (PNEUMATIC FITTINGS) C02251238 BR-NORGREN KOREA,REPUBLIC OF Delhi Air Cargo 50 0.0018 NOS 36.0
2016-09-27 73269099 ST ADAPTOR (PNEUMATIC FITTING) C02251038 BR-NORGREN KOREA,REPUBLIC OF Delhi Air Cargo 100 0.0028 NOS 28.0
2016-09-27 73269099 STEM ADAPTOR (PNEUMATIC FITTING) C02251228 BR-NORGREN KOREA,REPUBLIC OF Delhi Air Cargo 50 0.0017 NOS 34.0
2016-09-27 73269099 STR ADAPTOR ( FITTINGS) 97466643PSBP 8BR-NORGREN UNITED KINGDOM Delhi Air Cargo 200 0.0225 NOS 112.0
2016-09-27 73269099 STR MALE ADAPTOR (FITTINGS) 431251028 BR-NORGREN UNITED KINGDOM Delhi Air Cargo 130 0.0077 NOS 59.0
2016-09-27 73269099 STR MALE ADAPTOR (FITTINGS) 431251038 BR-NORGREN UNITED KINGDOM Delhi Air Cargo 30 0.002 NOS 67.0
2016-09-27 73269099 STRAIGHT ADAPTOR (PNEUMATIC FITTINGS) C01250418 BR-NORGREN KOREA,REPUBLIC OF Delhi Air Cargo 100 0.0019 NOS 19.0
2016-09-27 73269099 STRAIGHT ADAPTOR (PNEUMATIC FITTINGS) C01250428 BR-NORGREN KOREA,REPUBLIC OF Delhi Air Cargo 400 0.0079 NOS 19.0
2016-09-27 73269099 STRAIGHT ADAPTOR (PNEUMATIC FITTINGS) C01250828 BR-NORGREN KOREA,REPUBLIC OF Delhi Air Cargo 500 0.0115 NOS 22.0
2016-09-27 73269099 STRAIGHT ADAPTOR (PNEUMATIC FITTINGS) C01251038 BR-NORGREN KOREA,REPUBLIC OF Delhi Air Cargo 100 0.0028 NOS 28.0
2016-09-27 73269099 STRAIGHT ADAPTOR (PNEUMATIC FITTINGS) C01251638 BR-NORGREN KOREA,REPUBLIC OF Delhi Air Cargo 25 0.0021 NOS 83.0
2016-09-27 73269099 STRAIGHT ADAPTOR (PNEUMATIC FITTINGS) C02250405 BR-NORGREN KOREA,REPUBLIC OF Delhi Air Cargo 100 0.0024 NOS 24.0
2016-09-27 73269099 STRAIGHT ADAPTOR (PNEUMATIC FITTINGS) C02250418 BR-NORGREN KOREA,REPUBLIC OF Delhi Air Cargo 200 0.0039 NOS 19.0
2016-09-27 73269099 STRAIGHT ADAPTOR (PNEUMATIC FITTINGS) C02250818 BR-NORGREN KOREA,REPUBLIC OF Delhi Air Cargo 100 0.0023 NOS 22.0
2016-09-27 73269099 STRAIGHT ADAPTOR (PNEUMATIC FITTINGS) C02250828 BR-NORGREN KOREA,REPUBLIC OF Delhi Air Cargo 100 0.0027 NOS 27.0
2016-09-27 73269099 STRAIGHT ADAPTOR (PNEUMATIC FITTINGS) C02260418 BR-NORGREN KOREA,REPUBLIC OF Delhi Air Cargo 100 0.0032 NOS 31.0
2016-09-27 73269099 STRAIGHT ADAPTOR (FITTINGS) 97466631 BR-NORGREN UNITED KINGDOM Delhi Air Cargo 312 0.062 NOS 198.0
2016-09-27 73269099 STRAIGHT ADAPTOR (FITTINGS) 97466633 BR-NORGREN UNITED KINGDOM Delhi Air Cargo 615 0.1204 NOS 195.0
2016-09-27 73269099 STRAIGHT ADAPTOR (FITTINGS) 98453019M BR-NORGREN UNITED KINGDOM Delhi Air Cargo 3000 0.3902 NOS 130.0
2016-09-27 73269099 STRAIGHT ADAPTOR MALE (FITTINGS) 101250818 BR-NORGREN UNITED KINGDOM Delhi Air Cargo 30 0.001 NOS 31.0
2016-09-27 73269099 STRAIGHT STEM ADAPTOR (PNEUMATIC FITTING) C02251248 BR-NORGREN KOREA,REPUBLIC OF Delhi Air Cargo 100 0.0041 NOS 41.0
2016-09-27 73269099 SWIVEL ADAPTOR MALE ( FITTINGS) 102570618 BR-NORGREN UNITED KINGDOM Delhi Air Cargo 4694 0.9347 NOS 199.0
2016-09-27 73269099 SWIVEL ELBOW ADAPTOR MALE ( FITTINGS) 101471238 BR-NORGREN UNITED KINGDOM Delhi Air Cargo 58 0.0109 NOS 188.0
2016-09-27 73269099 SWIVEL ELBOW ADAPTOR MALE ( FITTINGS) 101471248 BR-NORGREN UNITED KINGDOM Delhi Air Cargo 78 0.0127 NOS 163.0
2016-09-27 73269099 SWIVEL ELBOW ADAPTOR (PNEUMATIC FITTING) C02470618 BR-NORGREN KOREA,REPUBLIC OF Delhi Air Cargo 100 0.0024 NOS 24.0
2016-09-27 73269099 SWIVEL ELBOW ADAPTOR (PNEUMATIC FITTING) C02470628 BR-NORGREN KOREA,REPUBLIC OF Delhi Air Cargo 400 0.0107 NOS 26.0
2016-09-27 73269099 SWIVEL ELBOW ADAPTOR (PNEUMATIC FITTING) C02470638 BR-NORGREN KOREA,REPUBLIC OF Delhi Air Cargo 50 0.0017 NOS 33.0
2016-09-27 73269099 SWIVEL TEE ADAPTOR (PNEUMATIC FITTING) C01670828 BR-NORGREN KOREA,REPUBLIC OF Delhi Air Cargo 100 0.0046 NOS 46.0
2016-09-27 73269099 SWIVLE ELBOW ADAPTOR (PNEUMATIC FITTING) C01470618 BR-NORGREN KOREA,REPUBLIC OF Delhi Air Cargo 100 0.0024 NOS 24.0
2016-09-27 73269099 SWIVLE ELBOW ADAPTOR (PNEUMATIC FITTING) C01470828 BR-NORGREN KOREA,REPUBLIC OF Delhi Air Cargo 400 0.0106 NOS 26.0
2016-09-27 73269099 SWIVLE ELBOW ADAPTOR (PNEUMATIC FITTING) C02470618 BR-NORGREN KOREA,REPUBLIC OF Delhi Air Cargo 200 0.0049 NOS 24.0
2016-09-27 73269099 SWIVLE ELBOW ADAPTOR (PNEUMATIC FITTING) C02470628 BR-NORGREN KOREA,REPUBLIC OF Delhi Air Cargo 200 0.0053 NOS 26.0

Adaptor Trade Data - Indian Ports

S. No Product Product Code Quantity Value (INR in Million) Unit Origin Port Destination Port
AC ADAPTOR(85W)(ACDP-085E02)1-492-732-17,KLV-40R482B(BIS:CMD-3/CRS/2015-0136/R-41012459 DT-02/03/2015(PARTS FOR LCD TV) 85044090 162 0.2432 PCS CHINA Delhi Air Cargo
AC ADAPTOR(AC-E1525M)IN2,9-885-205-78,SRS-XB3(BIS:CMD-5/CRS2015-0228/R-41015989 DT-31/08/2015(PARTS FOR SPEAKER SYSTEM) 85044090 1 0.0015 PCS CHINA Delhi Air Cargo
ADAPTOR,AC(AC-P5004N)9-885-206-06,MDR-HW300K(BIS:CMD-5/C R/2015-0803/R-41017230 DT-16/07/2015(PARTS FOR AUDIO SYSTEM) 85044090 17 0.0116 PCS CHINA Delhi Air Cargo
DOUBLE ADAPTOR (FEMALE-FEMALE) (COMPONENTS FOR ARTIFICIALLIMBS) 90213100 1 0.0045 PCS HONG KONG Delhi Air Cargo
FEMALE SOCKET ADAPTOR (ROTATABLE) (COMPONENTS FOR ARTIFICIAL LIMBS) 90213100 5 0.0091 PCS HONG KONG Delhi Air Cargo
FEMALE TUBE ADAPTOR (STAINLESS (COMPONENTS FOR ARTIFICIAL LIMBS) 90213100 10 0.0131 PCS HONG KONG Delhi Air Cargo
MALE SOCKET ADAPTOR (4 ARMS) (COMPONENTS FOR ARTIFICIAL LIMBS) 90213100 4 0.0049 PCS HONG KONG Delhi Air Cargo
SINGLE AXIS ANKLE ADAPTOR (COMPONENTS FOR ARTIFICIAL LIMBS) 90213100 3 0.0047 PCS HONG KONG Delhi Air Cargo
TUBE ADAPTOR (STAINLESS STEEL) (COMPONENTS FOR ARTIFICIAL LIMBS) 90213100 2 0.0025 PCS HONG KONG Delhi Air Cargo
TUBE FOR PYRAMID ADAPTOR (210M (COMPONENTS FOR ARTIFICIAL LIMBS) 90213100 10 0.0131 PCS HONG KONG Delhi Air Cargo
POWER ADAPTOR EUROPE FOR C1 (POWER CORD) 85444999 1 8.0E-4 PCS AUSTRIA Chennai Air Cargo
ADAPTOR BOARD BNC ANALOG DISCOVERY 2352612 85389000 1 0.0011 NOS UNITED KINGDOM Banglore Air Cargo
FX3G-CNV-ADP ADAPTOR 85389000 37 0.0379 PCS JAPAN Bombay Air Cargo
FX5-232ADP ADAPTOR 85389000 3 0.0092 PCS JAPAN Bombay Air Cargo
FX5-CNV-IFC ADAPTOR 85389000 6 0.0061 PCS JAPAN Bombay Air Cargo
ADAPTOR LATHE 360' KIT 90319000 1 0.0736 NOS UNITED KINGDOM Bombay Air Cargo
ADAPTOR VTL 90319000 1 0.0201 NOS UNITED KINGDOM Bombay Air Cargo
ADAPTOR FOR L-102 (FOR LED DESK LAMP) (NET WT. 0.75 KGS) 94054090 30 0.0043 PCS CHINA Nhava Sheva Sea
ADAPTOR FOR L-103 (FOR LED DESK LAMP) (NET WT. 0.75 KGS) 94054090 30 0.0043 PCS CHINA Nhava Sheva Sea
24 V ADAPTOR FOR UDS-P & J NEW TYPE PARTS FOR DENTAL EQUIPMENT 90184900 55 0.031 NOS CHINA Chennai Sea
30 V DC ADAPTOR ROUND PIN OLD TYPE PARTS FOR DENTAL EQUIPMENT 90184900 50 0.0358 NOS CHINA Chennai Sea
CRW MAYFIELD ADAPTOR (839230)(LOT NO: 130349502)(SPARES FORCRW SYSTEM )(MEDICAL EQUIPMENT) 90185090 1 0.1724 NOS UNITED STATES Chennai Air Cargo
GAS ANALYSIS POLYTRON 7000 REMOTE SENSOR ADAPTOR 8317275 90271000 6 0.0379 PCS GERMANY Bombay Air Cargo
02-10797 ADAPTOR, R1/8 BSP TO G1/4 (PARTS FOR FIRE SUPPRESSION DEMO KITS) 84249000 1 0.0 PCS UNITED KINGDOM Bombay Air Cargo
001125958ENDMILL ADAPTOR EM HSK63A 16 WELDONHSK63AEM16080M 84661020 1 0.0038 NOS GERMANY Banglore Air Cargo

Looking to import Adaptor?

With end to end global trade solutions from Connect2India, we enable Indian SMEs to start and grow their business globally

Yearwise analysis of Adaptor import to India

Below is the detailed list of Adaptor import to India with quantity, volume, price, origin port and the destination port.

Increase your Adaptor imports with steady access to working capital with our import financing solutions at Connect2India.

Looking to import Adaptor from genuine and best quality Indian suppliers?

Graphical representation for Adaptor import

Adaptor - Recent import data

How connect2india can help you import Adaptor?

Connect2India can help you find Adaptor suppliers / exporters in more than 100 countries, arrange import orders for Adaptor, find the most effective market to import Adaptor, help you out with procedures and formalities required to import Adaptor in India and also assist you in Adaptor shipment and logistics. Our trade experts are always available for any help regarding the import of Adaptor and its products. If you want more information, please get in touch with our trade experts here

People Also Ask

Whom can I contact for more information on Adaptor import to India?

You can submit your requirement on Connect2India and our representative will get in touch with you with more information about Adaptor. Alternatively, you can call us @ +91-7876759999 or email us to info@connect2India.com

Which is the most popular Indian port for Adaptor import?

Delhi Air Cargo is the most popular port for Adaptor import to India

What are the top three import shipments of Adaptor traded to India?

Following are the top three import shipments of Adaptor traded to India :

  • SPARE PARTS FOR WASHING MACHINE- PLASTIC FITTING SET FOR INLET HOSE OF WASHING MACHINE (30000 SETS TAP ADAPTOR)
  • COATING ADAPTOR 134-135 800100019 PARTS FOR ROTARY SCREEN PRINTING MACHINE
  • HKW-030-55/11 NOSE ADAPTOR 3-6 HK55/11 (QTY: 1 PCS / CHF 156.00 PER PCS)